Timberlake, Louisiana
Current Conditions -  °F | °C
As of 4:53 AM on Wednesday 26 Nov 2014 (Local Time) from KAEX Reporting Station
Clear Clear  
Wind Chill: 38°   Ceiling: Unl
Heat Index: 38°   Visibility: 10mi
Dew Point: 34°   Wind: 3mph
Humidity: 86%   Direction: 180°S
Pressure: 30.17"   Gusts: NA
Location:  31.1516°N, 92.535°W
Report Text: KAEX 261053Z AUTO 18003KT 10SM CLR 03/01 A3017 RMK AO2 SLP222 T00330011
Loading
Personal Weather Stations






























Interactive Weather Map New forecast layout! Learn more

10-Day Weather Forecast

Advertisements
Track Severe Weather on mobile